Canton Township, Michigan
Current Conditions -  °F | °C
As of 12:11 PM on Friday 31 Oct 2014 (Local Time) from KYIP Reporting Station
Light Rain Light Rain  
Wind Chill: 41°   Ceiling: 1700
Heat Index: 46°   Visibility: 10mi
Dew Point: 39°   Wind: 12mph
Humidity: 76%   Direction: 330°NNW
Pressure: 29.9"   Gusts: NA
Location:  42.2857°N, 83.4854°W
Report Text: KYIP 311611Z AUTO 33010KT 10SM -RA FEW011 OVC017 08/04 A2990 RMK AO2 P0000 T00780039 TSNO
Loading
Personal Weather Stations






























Interactive Weather Map
Tropical Storm Tracking
New forecast layout! Learn more

10-Day Weather Forecast

Advertisements
Track Severe Weather on mobile